sensor_id;sensor_type;location;lat;lon;timestamp;P1;durP1;ratioP1;P2;durP2;ratioP2
19131;SDS011;9698;51.976;7.570;2023-09-19T00:01:39;7.00;;;2.50;;
19131;SDS011;9698;51.976;7.570;2023-09-19T00:04:07;8.90;;;2.57;;
19131;SDS011;9698;51.976;7.570;2023-09-19T00:06:36;6.77;;;2.67;;
19131;SDS011;9698;51.976;7.570;2023-09-19T00:09:04;7.73;;;2.40;;
19131;SDS011;9698;51.976;7.570;2023-09-19T00:11:37;7.40;;;2.73;;
19131;SDS011;9698;51.976;7.570;2023-09-19T00:14:05;7.27;;;2.57;;
19131;SDS011;9698;51.976;7.570;2023-09-19T00:16:34;8.90;;;2.70;;
19131;SDS011;9698;51.976;7.570;2023-09-19T00:19:02;7.73;;;2.40;;
19131;SDS011;9698;51.976;7.570;2023-09-19T00:21:35;8.20;;;2.70;;
19131;SDS011;9698;51.976;7.570;2023-09-19T00:24:04;6.37;;;2.73;;
19131;SDS011;9698;51.976;7.570;2023-09-19T00:26:33;5.60;;;2.53;;
19131;SDS011;9698;51.976;7.570;2023-09-19T00:29:01;4.93;;;2.30;;
19131;SDS011;9698;51.976;7.570;2023-09-19T00:31:30;8.40;;;2.27;;
19131;SDS011;9698;51.976;7.570;2023-09-19T00:33:58;8.53;;;2.93;;
19131;SDS011;9698;51.976;7.570;2023-09-19T00:36:36;6.63;;;2.47;;
19131;SDS011;9698;51.976;7.570;2023-09-19T00:39:05;7.50;;;2.87;;
19131;SDS011;9698;51.976;7.570;2023-09-19T00:41:34;5.97;;;2.47;;
19131;SDS011;9698;51.976;7.570;2023-09-19T00:44:02;6.73;;;2.53;;
19131;SDS011;9698;51.976;7.570;2023-09-19T00:46:31;5.67;;;2.53;;
19131;SDS011;9698;51.976;7.570;2023-09-19T00:49:00;12.33;;;2.77;;
19131;SDS011;9698;51.976;7.570;2023-09-19T00:51:28;10.57;;;3.20;;
19131;SDS011;9698;51.976;7.570;2023-09-19T00:53:56;8.60;;;2.63;;
19131;SDS011;9698;51.976;7.570;2023-09-19T00:56:25;6.50;;;2.47;;
19131;SDS011;9698;51.976;7.570;2023-09-19T00:58:53;7.70;;;2.57;;
19131;SDS011;9698;51.976;7.570;2023-09-19T01:01:21;10.77;;;3.10;;
19131;SDS011;9698;51.976;7.570;2023-09-19T01:03:49;8.50;;;2.80;;
19131;SDS011;9698;51.976;7.570;2023-09-19T01:06:17;12.40;;;2.97;;
19131;SDS011;9698;51.976;7.570;2023-09-19T01:08:45;6.10;;;2.70;;
19131;SDS011;9698;51.976;7.570;2023-09-19T01:11:14;8.53;;;2.70;;
19131;SDS011;9698;51.976;7.570;2023-09-19T01:13:56;7.27;;;2.83;;
19131;SDS011;9698;51.976;7.570;2023-09-19T01:16:35;7.33;;;2.87;;
19131;SDS011;9698;51.976;7.570;2023-09-19T01:19:16;10.13;;;3.20;;
19131;SDS011;9698;51.976;7.570;2023-09-19T01:22:09;7.30;;;2.90;;
19131;SDS011;9698;51.976;7.570;2023-09-19T01:24:52;6.53;;;2.53;;
19131;SDS011;9698;51.976;7.570;2023-09-19T01:27:40;7.90;;;2.70;;
19131;SDS011;9698;51.976;7.570;2023-09-19T01:30:35;7.40;;;2.90;;
19131;SDS011;9698;51.976;7.570;2023-09-19T01:33:06;8.03;;;2.73;;
19131;SDS011;9698;51.976;7.570;2023-09-19T01:35:37;7.40;;;2.83;;
19131;SDS011;9698;51.976;7.570;2023-09-19T01:38:05;10.43;;;3.00;;
19131;SDS011;9698;51.976;7.570;2023-09-19T01:40:38;9.07;;;2.67;;
19131;SDS011;9698;51.976;7.570;2023-09-19T01:43:09;7.63;;;3.00;;
19131;SDS011;9698;51.976;7.570;2023-09-19T01:45:46;9.77;;;2.93;;
19131;SDS011;9698;51.976;7.570;2023-09-19T01:48:22;9.17;;;2.97;;
19131;SDS011;9698;51.976;7.570;2023-09-19T01:51:00;6.93;;;2.77;;
19131;SDS011;9698;51.976;7.570;2023-09-19T01:53:46;8.43;;;3.17;;
19131;SDS011;9698;51.976;7.570;2023-09-19T01:56:23;8.97;;;3.00;;
19131;SDS011;9698;51.976;7.570;2023-09-19T01:58:59;8.43;;;2.60;;
19131;SDS011;9698;51.976;7.570;2023-09-19T02:01:32;10.93;;;2.80;;
19131;SDS011;9698;51.976;7.570;2023-09-19T02:04:03;12.60;;;3.50;;
19131;SDS011;9698;51.976;7.570;2023-09-19T02:06:32;12.83;;;3.30;;
19131;SDS011;9698;51.976;7.570;2023-09-19T02:09:00;9.43;;;2.80;;
19131;SDS011;9698;51.976;7.570;2023-09-19T02:11:30;9.23;;;2.60;;
19131;SDS011;9698;51.976;7.570;2023-09-19T02:13:57;8.07;;;2.83;;
19131;SDS011;9698;51.976;7.570;2023-09-19T02:16:26;8.40;;;2.90;;
19131;SDS011;9698;51.976;7.570;2023-09-19T02:18:55;8.87;;;2.90;;
19131;SDS011;9698;51.976;7.570;2023-09-19T02:21:23;11.30;;;3.10;;
19131;SDS011;9698;51.976;7.570;2023-09-19T02:23:51;8.03;;;2.77;;
19131;SDS011;9698;51.976;7.570;2023-09-19T02:26:18;8.10;;;2.93;;
19131;SDS011;9698;51.976;7.570;2023-09-19T02:28:46;17.00;;;3.53;;
19131;SDS011;9698;51.976;7.570;2023-09-19T02:31:14;9.03;;;3.03;;
19131;SDS011;9698;51.976;7.570;2023-09-19T02:33:43;7.27;;;2.40;;
19131;SDS011;9698;51.976;7.570;2023-09-19T02:36:12;10.33;;;2.70;;
19131;SDS011;9698;51.976;7.570;2023-09-19T02:38:43;9.40;;;2.70;;
19131;SDS011;9698;51.976;7.570;2023-09-19T02:41:11;9.20;;;2.77;;
19131;SDS011;9698;51.976;7.570;2023-09-19T02:43:39;11.30;;;3.10;;
19131;SDS011;9698;51.976;7.570;2023-09-19T02:46:09;12.03;;;3.10;;
19131;SDS011;9698;51.976;7.570;2023-09-19T02:48:38;10.03;;;2.63;;
19131;SDS011;9698;51.976;7.570;2023-09-19T02:51:08;7.20;;;2.73;;
19131;SDS011;9698;51.976;7.570;2023-09-19T02:53:36;14.83;;;3.10;;
19131;SDS011;9698;51.976;7.570;2023-09-19T02:56:04;6.60;;;2.80;;
19131;SDS011;9698;51.976;7.570;2023-09-19T02:58:33;10.83;;;3.30;;
19131;SDS011;9698;51.976;7.570;2023-09-19T03:01:08;9.43;;;2.77;;
19131;SDS011;9698;51.976;7.570;2023-09-19T03:03:38;8.50;;;3.00;;
19131;SDS011;9698;51.976;7.570;2023-09-19T03:06:07;7.87;;;2.47;;
19131;SDS011;9698;51.976;7.570;2023-09-19T03:08:36;14.20;;;3.43;;
19131;SDS011;9698;51.976;7.570;2023-09-19T03:11:05;7.43;;;2.83;;
19131;SDS011;9698;51.976;7.570;2023-09-19T03:13:38;8.07;;;2.37;;
19131;SDS011;9698;51.976;7.570;2023-09-19T03:16:08;7.40;;;2.70;;
19131;SDS011;9698;51.976;7.570;2023-09-19T03:18:36;10.07;;;2.70;;
19131;SDS011;9698;51.976;7.570;2023-09-19T03:21:04;9.20;;;2.90;;
19131;SDS011;9698;51.976;7.570;2023-09-19T03:23:32;10.43;;;2.80;;
19131;SDS011;9698;51.976;7.570;2023-09-19T03:26:00;6.33;;;2.53;;
19131;SDS011;9698;51.976;7.570;2023-09-19T03:28:32;5.77;;;2.60;;
19131;SDS011;9698;51.976;7.570;2023-09-19T03:31:02;10.27;;;3.03;;
19131;SDS011;9698;51.976;7.570;2023-09-19T03:33:31;6.87;;;2.37;;
19131;SDS011;9698;51.976;7.570;2023-09-19T03:36:00;7.20;;;2.53;;
19131;SDS011;9698;51.976;7.570;2023-09-19T03:38:31;8.63;;;3.13;;
19131;SDS011;9698;51.976;7.570;2023-09-19T03:41:00;9.27;;;2.90;;
19131;SDS011;9698;51.976;7.570;2023-09-19T03:43:28;6.40;;;2.60;;
19131;SDS011;9698;51.976;7.570;2023-09-19T03:45:56;10.03;;;3.10;;
19131;SDS011;9698;51.976;7.570;2023-09-19T03:48:28;5.57;;;2.40;;
19131;SDS011;9698;51.976;7.570;2023-09-19T03:50:56;9.17;;;2.67;;
19131;SDS011;9698;51.976;7.570;2023-09-19T03:53:25;9.47;;;3.00;;
19131;SDS011;9698;51.976;7.570;2023-09-19T03:55:53;10.83;;;2.63;;
19131;SDS011;9698;51.976;7.570;2023-09-19T03:58:21;8.47;;;2.87;;
19131;SDS011;9698;51.976;7.570;2023-09-19T04:00:49;8.90;;;2.80;;
19131;SDS011;9698;51.976;7.570;2023-09-19T04:03:17;7.33;;;2.73;;
19131;SDS011;9698;51.976;7.570;2023-09-19T04:05:47;6.80;;;2.80;;
19131;SDS011;9698;51.976;7.570;2023-09-19T04:08:15;8.70;;;2.93;;
19131;SDS011;9698;51.976;7.570;2023-09-19T04:10:43;8.60;;;2.90;;
19131;SDS011;9698;51.976;7.570;2023-09-19T04:13:11;6.03;;;2.80;;
19131;SDS011;9698;51.976;7.570;2023-09-19T04:15:40;7.30;;;2.87;;
19131;SDS011;9698;51.976;7.570;2023-09-19T04:18:07;7.13;;;2.97;;
19131;SDS011;9698;51.976;7.570;2023-09-19T04:20:35;8.47;;;2.50;;
19131;SDS011;9698;51.976;7.570;2023-09-19T04:23:03;8.80;;;2.80;;
19131;SDS011;9698;51.976;7.570;2023-09-19T04:25:31;8.47;;;2.63;;
19131;SDS011;9698;51.976;7.570;2023-09-19T04:28:00;7.60;;;2.73;;
19131;SDS011;9698;51.976;7.570;2023-09-19T04:30:30;12.43;;;2.67;;
19131;SDS011;9698;51.976;7.570;2023-09-19T04:32:58;8.60;;;2.60;;
19131;SDS011;9698;51.976;7.570;2023-09-19T04:35:28;11.63;;;2.97;;
19131;SDS011;9698;51.976;7.570;2023-09-19T04:37:58;9.63;;;2.63;;
19131;SDS011;9698;51.976;7.570;2023-09-19T04:40:26;10.07;;;2.70;;
19131;SDS011;9698;51.976;7.570;2023-09-19T04:42:56;7.83;;;2.40;;
19131;SDS011;9698;51.976;7.570;2023-09-19T04:45:24;12.13;;;3.10;;
19131;SDS011;9698;51.976;7.570;2023-09-19T04:47:52;6.70;;;2.70;;
19131;SDS011;9698;51.976;7.570;2023-09-19T04:50:20;8.73;;;2.90;;
19131;SDS011;9698;51.976;7.570;2023-09-19T04:52:49;10.30;;;2.77;;
19131;SDS011;9698;51.976;7.570;2023-09-19T04:55:18;9.60;;;2.73;;
19131;SDS011;9698;51.976;7.570;2023-09-19T04:57:46;9.87;;;3.20;;
19131;SDS011;9698;51.976;7.570;2023-09-19T05:00:15;5.90;;;2.70;;
19131;SDS011;9698;51.976;7.570;2023-09-19T05:02:45;8.60;;;2.97;;
19131;SDS011;9698;51.976;7.570;2023-09-19T05:05:15;6.90;;;2.53;;
19131;SDS011;9698;51.976;7.570;2023-09-19T05:07:45;7.47;;;2.57;;
19131;SDS011;9698;51.976;7.570;2023-09-19T05:10:13;6.97;;;2.63;;
19131;SDS011;9698;51.976;7.570;2023-09-19T05:12:44;11.17;;;3.03;;
19131;SDS011;9698;51.976;7.570;2023-09-19T05:15:32;5.83;;;2.13;;
19131;SDS011;9698;51.976;7.570;2023-09-19T05:18:02;7.87;;;2.60;;
19131;SDS011;9698;51.976;7.570;2023-09-19T05:20:32;13.87;;;2.80;;
19131;SDS011;9698;51.976;7.570;2023-09-19T05:23:02;7.17;;;2.47;;
19131;SDS011;9698;51.976;7.570;2023-09-19T05:25:51;10.33;;;2.60;;
19131;SDS011;9698;51.976;7.570;2023-09-19T05:28:21;5.70;;;2.30;;
19131;SDS011;9698;51.976;7.570;2023-09-19T05:30:49;11.43;;;3.43;;
19131;SDS011;9698;51.976;7.570;2023-09-19T05:33:17;13.07;;;3.80;;
19131;SDS011;9698;51.976;7.570;2023-09-19T05:35:45;20.13;;;5.57;;
19131;SDS011;9698;51.976;7.570;2023-09-19T05:38:15;12.20;;;3.50;;
19131;SDS011;9698;51.976;7.570;2023-09-19T05:40:45;8.20;;;2.93;;
19131;SDS011;9698;51.976;7.570;2023-09-19T05:43:13;8.17;;;2.43;;
19131;SDS011;9698;51.976;7.570;2023-09-19T05:45:41;10.17;;;3.07;;
19131;SDS011;9698;51.976;7.570;2023-09-19T05:48:10;11.43;;;2.77;;
19131;SDS011;9698;51.976;7.570;2023-09-19T05:50:41;7.97;;;2.50;;
19131;SDS011;9698;51.976;7.570;2023-09-19T05:53:11;6.70;;;2.30;;
19131;SDS011;9698;51.976;7.570;2023-09-19T05:55:41;8.03;;;2.47;;
19131;SDS011;9698;51.976;7.570;2023-09-19T05:58:09;8.90;;;2.37;;
19131;SDS011;9698;51.976;7.570;2023-09-19T06:00:40;11.17;;;2.90;;
19131;SDS011;9698;51.976;7.570;2023-09-19T06:03:09;9.67;;;2.87;;
19131;SDS011;9698;51.976;7.570;2023-09-19T06:05:39;7.23;;;2.57;;
19131;SDS011;9698;51.976;7.570;2023-09-19T06:08:08;10.33;;;2.90;;
19131;SDS011;9698;51.976;7.570;2023-09-19T06:10:35;6.27;;;2.33;;
19131;SDS011;9698;51.976;7.570;2023-09-19T06:13:04;8.00;;;2.70;;
19131;SDS011;9698;51.976;7.570;2023-09-19T06:15:32;5.97;;;2.43;;
19131;SDS011;9698;51.976;7.570;2023-09-19T06:18:03;9.77;;;2.57;;
19131;SDS011;9698;51.976;7.570;2023-09-19T06:20:32;7.73;;;3.10;;
19131;SDS011;9698;51.976;7.570;2023-09-19T06:23:00;6.43;;;2.27;;
19131;SDS011;9698;51.976;7.570;2023-09-19T06:25:31;8.03;;;2.90;;
19131;SDS011;9698;51.976;7.570;2023-09-19T06:27:58;6.20;;;2.80;;
19131;SDS011;9698;51.976;7.570;2023-09-19T06:30:31;9.30;;;2.83;;
19131;SDS011;9698;51.976;7.570;2023-09-19T06:33:00;10.40;;;2.63;;
19131;SDS011;9698;51.976;7.570;2023-09-19T06:35:30;8.50;;;2.73;;
19131;SDS011;9698;51.976;7.570;2023-09-19T06:38:02;7.27;;;2.53;;
19131;SDS011;9698;51.976;7.570;2023-09-19T06:40:33;6.50;;;2.57;;
19131;SDS011;9698;51.976;7.570;2023-09-19T06:43:01;8.63;;;2.37;;
19131;SDS011;9698;51.976;7.570;2023-09-19T06:45:31;8.23;;;2.93;;
19131;SDS011;9698;51.976;7.570;2023-09-19T06:47:59;11.10;;;2.73;;
19131;SDS011;9698;51.976;7.570;2023-09-19T06:50:29;9.93;;;3.33;;
19131;SDS011;9698;51.976;7.570;2023-09-19T06:53:16;7.83;;;2.73;;
19131;SDS011;9698;51.976;7.570;2023-09-19T06:55:44;5.43;;;2.63;;
19131;SDS011;9698;51.976;7.570;2023-09-19T06:58:14;7.93;;;2.63;;
19131;SDS011;9698;51.976;7.570;2023-09-19T07:00:42;6.50;;;2.50;;
19131;SDS011;9698;51.976;7.570;2023-09-19T07:03:12;6.07;;;2.40;;
19131;SDS011;9698;51.976;7.570;2023-09-19T07:05:42;8.27;;;2.70;;
19131;SDS011;9698;51.976;7.570;2023-09-19T07:08:10;8.70;;;2.73;;
19131;SDS011;9698;51.976;7.570;2023-09-19T07:10:38;6.60;;;2.57;;
19131;SDS011;9698;51.976;7.570;2023-09-19T07:13:07;11.87;;;3.00;;
19131;SDS011;9698;51.976;7.570;2023-09-19T07:15:37;4.67;;;2.20;;
19131;SDS011;9698;51.976;7.570;2023-09-19T07:18:25;7.40;;;3.23;;
19131;SDS011;9698;51.976;7.570;2023-09-19T07:20:56;9.57;;;2.80;;
19131;SDS011;9698;51.976;7.570;2023-09-19T07:23:27;9.43;;;3.07;;
19131;SDS011;9698;51.976;7.570;2023-09-19T07:25:57;10.83;;;2.50;;
19131;SDS011;9698;51.976;7.570;2023-09-19T07:28:26;8.43;;;2.63;;
19131;SDS011;9698;51.976;7.570;2023-09-19T07:30:54;9.67;;;2.70;;
19131;SDS011;9698;51.976;7.570;2023-09-19T07:33:22;10.80;;;2.73;;
19131;SDS011;9698;51.976;7.570;2023-09-19T07:35:52;9.53;;;3.03;;
19131;SDS011;9698;51.976;7.570;2023-09-19T07:38:21;8.53;;;2.70;;
19131;SDS011;9698;51.976;7.570;2023-09-19T07:40:49;10.67;;;3.07;;
19131;SDS011;9698;51.976;7.570;2023-09-19T07:43:17;8.47;;;2.87;;
19131;SDS011;9698;51.976;7.570;2023-09-19T07:45:45;7.53;;;2.70;;
19131;SDS011;9698;51.976;7.570;2023-09-19T07:48:13;6.03;;;2.47;;
19131;SDS011;9698;51.976;7.570;2023-09-19T07:50:42;8.23;;;2.67;;
19131;SDS011;9698;51.976;7.570;2023-09-19T07:53:10;7.87;;;2.80;;
19131;SDS011;9698;51.976;7.570;2023-09-19T07:55:39;10.03;;;3.10;;
19131;SDS011;9698;51.976;7.570;2023-09-19T07:58:07;9.77;;;2.93;;
19131;SDS011;9698;51.976;7.570;2023-09-19T08:03:22;13.43;;;2.63;;
19131;SDS011;9698;51.976;7.570;2023-09-19T08:05:50;8.03;;;2.63;;
19131;SDS011;9698;51.976;7.570;2023-09-19T08:08:18;6.53;;;2.50;;
19131;SDS011;9698;51.976;7.570;2023-09-19T08:10:52;7.07;;;2.67;;
19131;SDS011;9698;51.976;7.570;2023-09-19T08:13:22;8.70;;;2.90;;
19131;SDS011;9698;51.976;7.570;2023-09-19T08:15:50;8.27;;;2.87;;
19131;SDS011;9698;51.976;7.570;2023-09-19T08:18:19;7.93;;;2.70;;
19131;SDS011;9698;51.976;7.570;2023-09-19T08:20:52;6.60;;;2.83;;
19131;SDS011;9698;51.976;7.570;2023-09-19T08:23:20;9.47;;;2.97;;
19131;SDS011;9698;51.976;7.570;2023-09-19T08:25:48;8.97;;;2.53;;
19131;SDS011;9698;51.976;7.570;2023-09-19T08:28:16;8.27;;;2.70;;
19131;SDS011;9698;51.976;7.570;2023-09-19T08:30:45;9.03;;;3.00;;
19131;SDS011;9698;51.976;7.570;2023-09-19T08:33:13;5.43;;;2.20;;
19131;SDS011;9698;51.976;7.570;2023-09-19T08:35:41;9.10;;;2.80;;
19131;SDS011;9698;51.976;7.570;2023-09-19T08:38:11;11.57;;;2.93;;
19131;SDS011;9698;51.976;7.570;2023-09-19T08:40:40;7.17;;;3.00;;
19131;SDS011;9698;51.976;7.570;2023-09-19T08:43:10;10.67;;;2.67;;
19131;SDS011;9698;51.976;7.570;2023-09-19T08:45:39;10.77;;;3.00;;
19131;SDS011;9698;51.976;7.570;2023-09-19T08:48:22;8.80;;;2.60;;
19131;SDS011;9698;51.976;7.570;2023-09-19T08:50:55;7.03;;;2.90;;
19131;SDS011;9698;51.976;7.570;2023-09-19T08:53:30;11.77;;;2.70;;
19131;SDS011;9698;51.976;7.570;2023-09-19T08:56:09;7.80;;;2.73;;
19131;SDS011;9698;51.976;7.570;2023-09-19T08:58:42;6.67;;;2.40;;
19131;SDS011;9698;51.976;7.570;2023-09-19T09:01:15;10.33;;;3.10;;
19131;SDS011;9698;51.976;7.570;2023-09-19T09:03:51;8.90;;;3.10;;
19131;SDS011;9698;51.976;7.570;2023-09-19T09:06:20;9.70;;;2.83;;
19131;SDS011;9698;51.976;7.570;2023-09-19T09:08:50;9.80;;;2.97;;
19131;SDS011;9698;51.976;7.570;2023-09-19T09:11:19;9.27;;;3.07;;
19131;SDS011;9698;51.976;7.570;2023-09-19T09:14:08;6.90;;;2.43;;
19131;SDS011;9698;51.976;7.570;2023-09-19T09:16:37;8.60;;;2.83;;
19131;SDS011;9698;51.976;7.570;2023-09-19T09:19:06;9.23;;;2.37;;
19131;SDS011;9698;51.976;7.570;2023-09-19T09:21:34;8.17;;;2.63;;
19131;SDS011;9698;51.976;7.570;2023-09-19T09:26:56;7.70;;;2.70;;
19131;SDS011;9698;51.976;7.570;2023-09-19T09:29:41;7.97;;;2.70;;
19131;SDS011;9698;51.976;7.570;2023-09-19T09:32:17;9.73;;;2.80;;
19131;SDS011;9698;51.976;7.570;2023-09-19T09:34:52;10.73;;;3.17;;
19131;SDS011;9698;51.976;7.570;2023-09-19T09:37:23;11.47;;;2.73;;
19131;SDS011;9698;51.976;7.570;2023-09-19T09:39:55;6.97;;;2.70;;
19131;SDS011;9698;51.976;7.570;2023-09-19T09:45:19;9.73;;;2.63;;
19131;SDS011;9698;51.976;7.570;2023-09-19T09:47:54;8.73;;;2.37;;
19131;SDS011;9698;51.976;7.570;2023-09-19T09:50:24;8.13;;;2.67;;
19131;SDS011;9698;51.976;7.570;2023-09-19T09:53:03;8.50;;;2.67;;
19131;SDS011;9698;51.976;7.570;2023-09-19T09:58:26;7.07;;;2.10;;
19131;SDS011;9698;51.976;7.570;2023-09-19T10:00:56;9.50;;;2.83;;
19131;SDS011;9698;51.976;7.570;2023-09-19T10:03:31;7.13;;;2.77;;
19131;SDS011;9698;51.976;7.570;2023-09-19T10:06:10;8.87;;;2.53;;
19131;SDS011;9698;51.976;7.570;2023-09-19T10:08:59;12.43;;;4.10;;
19131;SDS011;9698;51.976;7.570;2023-09-19T10:11:33;8.30;;;2.97;;
19131;SDS011;9698;51.976;7.570;2023-09-19T10:14:03;8.97;;;2.90;;
19131;SDS011;9698;51.976;7.570;2023-09-19T10:16:35;10.17;;;3.13;;
19131;SDS011;9698;51.976;7.570;2023-09-19T10:19:07;13.73;;;3.20;;
19131;SDS011;9698;51.976;7.570;2023-09-19T10:21:37;7.33;;;2.80;;
19131;SDS011;9698;51.976;7.570;2023-09-19T10:24:06;8.70;;;2.90;;
19131;SDS011;9698;51.976;7.570;2023-09-19T10:26:36;8.37;;;3.00;;
19131;SDS011;9698;51.976;7.570;2023-09-19T10:29:06;8.90;;;2.83;;
19131;SDS011;9698;51.976;7.570;2023-09-19T10:31:36;7.67;;;2.40;;
19131;SDS011;9698;51.976;7.570;2023-09-19T10:34:08;9.57;;;3.10;;
19131;SDS011;9698;51.976;7.570;2023-09-19T10:36:37;12.90;;;3.23;;
19131;SDS011;9698;51.976;7.570;2023-09-19T10:39:25;11.00;;;3.30;;
19131;SDS011;9698;51.976;7.570;2023-09-19T10:41:57;10.57;;;2.80;;
19131;SDS011;9698;51.976;7.570;2023-09-19T10:44:32;9.33;;;3.00;;
19131;SDS011;9698;51.976;7.570;2023-09-19T10:47:04;7.67;;;3.07;;
19131;SDS011;9698;51.976;7.570;2023-09-19T10:49:33;9.23;;;2.90;;
19131;SDS011;9698;51.976;7.570;2023-09-19T10:52:04;6.90;;;2.53;;
19131;SDS011;9698;51.976;7.570;2023-09-19T10:54:36;7.67;;;2.50;;
19131;SDS011;9698;51.976;7.570;2023-09-19T10:57:08;11.97;;;3.57;;
19131;SDS011;9698;51.976;7.570;2023-09-19T10:59:37;10.57;;;3.03;;
19131;SDS011;9698;51.976;7.570;2023-09-19T11:02:29;7.67;;;2.97;;
19131;SDS011;9698;51.976;7.570;2023-09-19T11:05:02;10.17;;;3.10;;
19131;SDS011;9698;51.976;7.570;2023-09-19T11:07:57;7.73;;;2.97;;
19131;SDS011;9698;51.976;7.570;2023-09-19T11:10:45;8.93;;;3.03;;
19131;SDS011;9698;51.976;7.570;2023-09-19T11:16:21;7.73;;;2.43;;
19131;SDS011;9698;51.976;7.570;2023-09-19T11:18:53;9.57;;;2.70;;
19131;SDS011;9698;51.976;7.570;2023-09-19T11:21:38;6.63;;;2.90;;
19131;SDS011;9698;51.976;7.570;2023-09-19T11:24:28;9.57;;;4.63;;
19131;SDS011;9698;51.976;7.570;2023-09-19T11:27:12;18.13;;;10.47;;
19131;SDS011;9698;51.976;7.570;2023-09-19T11:29:45;15.27;;;8.70;;
19131;SDS011;9698;51.976;7.570;2023-09-19T11:32:14;20.17;;;10.83;;
19131;SDS011;9698;51.976;7.570;2023-09-19T11:34:48;16.00;;;11.07;;
19131;SDS011;9698;51.976;7.570;2023-09-19T11:40:45;10.57;;;6.30;;
19131;SDS011;9698;51.976;7.570;2023-09-19T11:47:22;10.77;;;4.43;;
19131;SDS011;9698;51.976;7.570;2023-09-19T11:49:53;6.80;;;3.50;;
19131;SDS011;9698;51.976;7.570;2023-09-19T11:52:23;7.93;;;3.57;;
19131;SDS011;9698;51.976;7.570;2023-09-19T11:54:55;7.13;;;3.67;;
19131;SDS011;9698;51.976;7.570;2023-09-19T11:57:26;8.27;;;3.57;;
19131;SDS011;9698;51.976;7.570;2023-09-19T12:00:02;8.33;;;3.30;;
19131;SDS011;9698;51.976;7.570;2023-09-19T12:02:38;6.93;;;3.67;;
19131;SDS011;9698;51.976;7.570;2023-09-19T12:05:10;7.10;;;3.70;;
19131;SDS011;9698;51.976;7.570;2023-09-19T12:07:43;10.20;;;3.13;;
19131;SDS011;9698;51.976;7.570;2023-09-19T12:10:15;10.27;;;3.53;;
19131;SDS011;9698;51.976;7.570;2023-09-19T12:12:48;8.00;;;3.47;;
19131;SDS011;9698;51.976;7.570;2023-09-19T12:15:22;7.03;;;3.30;;
19131;SDS011;9698;51.976;7.570;2023-09-19T12:17:54;9.13;;;2.90;;
19131;SDS011;9698;51.976;7.570;2023-09-19T12:20:23;7.17;;;2.87;;
19131;SDS011;9698;51.976;7.570;2023-09-19T12:22:52;10.77;;;3.20;;
19131;SDS011;9698;51.976;7.570;2023-09-19T12:25:21;8.27;;;3.13;;
19131;SDS011;9698;51.976;7.570;2023-09-19T12:27:51;8.83;;;2.90;;
19131;SDS011;9698;51.976;7.570;2023-09-19T12:30:26;6.23;;;2.60;;
19131;SDS011;9698;51.976;7.570;2023-09-19T12:32:59;10.03;;;3.17;;
19131;SDS011;9698;51.976;7.570;2023-09-19T12:35:29;8.80;;;2.63;;
19131;SDS011;9698;51.976;7.570;2023-09-19T12:38:01;6.53;;;2.53;;
19131;SDS011;9698;51.976;7.570;2023-09-19T12:40:30;9.77;;;2.83;;
19131;SDS011;9698;51.976;7.570;2023-09-19T12:43:01;6.50;;;2.67;;
19131;SDS011;9698;51.976;7.570;2023-09-19T12:45:31;11.27;;;3.10;;
19131;SDS011;9698;51.976;7.570;2023-09-19T12:48:21;9.13;;;3.00;;
19131;SDS011;9698;51.976;7.570;2023-09-19T12:51:02;6.87;;;2.83;;
19131;SDS011;9698;51.976;7.570;2023-09-19T12:53:32;6.97;;;2.40;;
19131;SDS011;9698;51.976;7.570;2023-09-19T12:56:04;5.90;;;2.40;;
19131;SDS011;9698;51.976;7.570;2023-09-19T12:58:34;6.37;;;2.83;;
19131;SDS011;9698;51.976;7.570;2023-09-19T13:01:16;5.47;;;2.77;;
19131;SDS011;9698;51.976;7.570;2023-09-19T13:03:45;8.57;;;2.50;;
19131;SDS011;9698;51.976;7.570;2023-09-19T13:06:39;7.93;;;2.53;;
19131;SDS011;9698;51.976;7.570;2023-09-19T13:09:10;8.83;;;2.73;;
19131;SDS011;9698;51.976;7.570;2023-09-19T13:11:40;7.77;;;2.47;;
19131;SDS011;9698;51.976;7.570;2023-09-19T13:14:15;6.73;;;2.70;;
19131;SDS011;9698;51.976;7.570;2023-09-19T13:20:02;4.53;;;2.30;;
19131;SDS011;9698;51.976;7.570;2023-09-19T13:22:38;6.53;;;3.00;;
19131;SDS011;9698;51.976;7.570;2023-09-19T13:25:08;5.70;;;2.90;;
19131;SDS011;9698;51.976;7.570;2023-09-19T13:27:40;8.10;;;3.00;;
19131;SDS011;9698;51.976;7.570;2023-09-19T13:30:12;6.43;;;2.70;;
19131;SDS011;9698;51.976;7.570;2023-09-19T13:32:40;8.63;;;2.80;;
19131;SDS011;9698;51.976;7.570;2023-09-19T13:35:09;7.83;;;2.77;;
19131;SDS011;9698;51.976;7.570;2023-09-19T13:37:38;6.47;;;2.43;;
19131;SDS011;9698;51.976;7.570;2023-09-19T13:40:10;7.37;;;2.63;;
19131;SDS011;9698;51.976;7.570;2023-09-19T13:42:40;8.00;;;2.50;;
19131;SDS011;9698;51.976;7.570;2023-09-19T13:45:09;8.17;;;2.63;;
19131;SDS011;9698;51.976;7.570;2023-09-19T13:47:38;5.53;;;2.30;;
19131;SDS011;9698;51.976;7.570;2023-09-19T13:50:07;8.20;;;2.73;;
19131;SDS011;9698;51.976;7.570;2023-09-19T13:52:55;5.67;;;2.30;;
19131;SDS011;9698;51.976;7.570;2023-09-19T13:55:24;7.10;;;2.43;;
19131;SDS011;9698;51.976;7.570;2023-09-19T13:57:52;7.93;;;3.00;;
19131;SDS011;9698;51.976;7.570;2023-09-19T14:00:23;9.37;;;3.53;;
19131;SDS011;9698;51.976;7.570;2023-09-19T14:02:51;9.23;;;3.10;;
19131;SDS011;9698;51.976;7.570;2023-09-19T14:05:19;4.90;;;2.13;;
19131;SDS011;9698;51.976;7.570;2023-09-19T14:07:48;5.97;;;2.10;;
